Time;durP1;ratioP1;P1;durP2;ratioP2;P2;SDS_P1;SDS_P2;PMS_P1;PMS_P2;Temp;Humidity;BMP_temperature;BMP_pressure;BME280_temperature;BME280_humidity;BME280_pressure;Samples;Min_cycle;Max_cycle;Signal;HPM_P1;HPM_P2
2022/09/16 00:00:22;;;;;;;4.55;1.63;;;15.60;73.30;;;;;;5133486;28;20423;-67
2022/09/16 00:02:51;;;;;;;5.10;1.42;;;15.60;73.30;;;;;;5135135;27;20035;-67
2022/09/16 00:05:16;;;;;;;4.53;1.77;;;15.60;73.40;;;;;;5135509;27;20035;-67
2022/09/16 00:07:42;;;;;;;5.40;1.60;;;15.60;73.40;;;;;;5135700;27;20050;-66
2022/09/16 00:10:08;;;;;;;6.00;1.83;;;15.60;73.40;;;;;;5135533;27;20072;-67
2022/09/16 00:12:34;;;;;;;6.43;2.15;;;15.60;73.50;;;;;;5137108;27;20047;-66
2022/09/16 00:14:59;;;;;;;6.55;1.98;;;15.60;73.50;;;;;;5137605;27;20088;-66
2022/09/16 00:17:25;;;;;;;3.92;1.60;;;15.60;73.50;;;;;;5138449;27;20420;-66
2022/09/16 00:19:50;;;;;;;4.75;1.60;;;15.60;73.60;;;;;;5137407;27;20110;-67
2022/09/16 00:22:17;;;;;;;4.57;1.50;;;15.60;73.70;;;;;;5137711;27;20075;-66
2022/09/16 00:24:42;;;;;;;3.05;1.40;;;15.60;73.70;;;;;;5138493;27;20076;-67
2022/09/16 00:27:09;;;;;;;5.53;1.60;;;15.60;73.70;;;;;;5130218;27;20389;-66
2022/09/16 00:29:35;;;;;;;5.32;1.40;;;15.60;73.80;;;;;;5137246;27;20030;-66
2022/09/16 00:32:01;;;;;;;5.60;1.30;;;15.60;73.80;;;;;;5136459;27;20039;-67
2022/09/16 00:34:26;;;;;;;8.40;1.33;;;15.60;73.80;;;;;;5138173;27;20081;-67
2022/09/16 00:36:52;;;;;;;7.18;1.45;;;15.60;73.80;;;;;;5136385;27;20026;-66
2022/09/16 00:39:17;;;;;;;3.85;1.25;;;15.60;73.80;;;;;;5137949;27;20011;-67
2022/09/16 00:41:43;;;;;;;5.30;1.27;;;15.60;73.80;;;;;;5137290;27;20455;-66
2022/09/16 00:44:47;;;;;;;6.40;1.35;;;15.60;73.80;;;;;;5136873;27;20106;-66
2022/09/16 00:47:15;;;;;;;3.58;0.98;;;15.60;73.90;;;;;;5136953;27;20027;-66
2022/09/16 00:49:42;;;;;;;4.72;1.55;;;15.60;73.90;;;;;;5136943;27;20403;-66
2022/09/16 00:52:09;;;;;;;4.45;1.00;;;15.50;74.00;;;;;;5137659;27;20035;-66
2022/09/16 00:54:36;;;;;;;5.70;1.55;;;15.60;74.00;;;;;;5137811;27;20210;-67
2022/09/16 00:57:03;;;;;;;4.40;1.02;;;15.60;73.90;;;;;;5136100;27;20455;-66
2022/09/16 00:59:36;;;;;;;5.75;1.60;;;15.60;73.90;;;;;;5137698;27;20117;-66
2022/09/16 01:02:12;;;;;;;2.60;1.00;;;15.60;74.00;;;;;;5137747;27;20031;-66
2022/09/16 01:04:44;;;;;;;3.10;1.10;;;15.60;74.00;;;;;;5136426;27;20131;-66
2022/09/16 01:07:09;;;;;;;7.95;1.55;;;15.60;74.20;;;;;;5137798;27;20031;-66
2022/09/16 01:09:36;;;;;;;7.25;1.40;;;15.60;74.20;;;;;;5136453;27;20027;-66
2022/09/16 01:12:02;;;;;;;2.80;1.10;;;15.60;74.20;;;;;;5137567;27;20522;-66
2022/09/16 01:17:49;;;;;;;6.15;1.20;;;15.60;74.20;;;;;;5138162;27;20105;-66
2022/09/16 01:20:55;;;;;;;5.07;1.40;;;15.50;74.20;;;;;;5126748;27;20095;-66
2022/09/16 01:24:02;;;;;;;4.15;1.23;;;15.50;74.20;;;;;;5121728;27;20155;-66
2022/09/16 01:27:11;;;;;;;5.45;1.20;;;15.50;74.40;;;;;;5136347;27;20388;-66
2022/09/16 01:30:13;;;;;;;4.78;1.30;;;15.50;74.50;;;;;;5136858;27;20332;-66
2022/09/16 01:33:00;;;;;;;5.53;1.00;;;15.50;74.50;;;;;;5136854;27;20053;-66
2022/09/16 01:35:25;;;;;;;3.85;1.48;;;15.50;74.60;;;;;;5131402;27;20075;-67
2022/09/16 01:38:29;;;;;;;5.97;1.25;;;15.50;74.70;;;;;;5136146;27;20027;-66
2022/09/16 01:41:03;;;;;;;3.38;1.10;;;15.50;74.70;;;;;;5136280;27;20447;-67
2022/09/16 01:43:49;;;;;;;3.95;1.30;;;15.40;74.80;;;;;;5135705;27;20375;-66
2022/09/16 01:46:41;;;;;;;3.95;1.55;;;15.40;75.00;;;;;;5133458;27;20039;-66
2022/09/16 01:49:20;;;;;;;7.78;1.30;;;15.40;75.00;;;;;;5071172;28;20093;-66
2022/09/16 01:52:10;;;;;;;4.38;1.13;;;15.40;75.10;;;;;;5057078;28;20042;-66
2022/09/16 01:54:41;;;;;;;5.55;1.42;;;15.40;75.10;;;;;;5065918;28;20052;-66
2022/09/16 01:57:16;;;;;;;4.97;1.45;;;15.40;75.10;;;;;;5073453;28;20090;-66
2022/09/16 01:59:49;;;;;;;3.55;1.38;;;15.40;75.20;;;;;;5069178;28;20157;-66
2022/09/16 02:02:32;;;;;;;4.65;1.48;;;15.50;75.20;;;;;;5053231;28;20496;-66
2022/09/16 02:05:02;;;;;;;4.55;1.23;;;15.50;75.90;;;;;;5066876;28;20029;-66
2022/09/16 02:07:32;;;;;;;5.85;1.45;;;15.50;75.30;;;;;;5068894;28;20105;-67
2022/09/16 02:10:05;;;;;;;3.97;1.35;;;15.50;75.30;;;;;;5073551;28;20350;-66
2022/09/16 02:12:36;;;;;;;4.30;1.23;;;15.50;75.30;;;;;;5060111;28;20051;-66
2022/09/16 02:15:08;;;;;;;4.10;1.30;;;15.50;75.30;;;;;;5067022;28;20032;-67
2022/09/16 02:17:37;;;;;;;4.95;1.25;;;15.50;75.30;;;;;;5073670;28;20036;-66
2022/09/16 02:20:13;;;;;;;2.28;1.10;;;15.50;75.40;;;;;;5063453;28;20123;-66
2022/09/16 02:22:53;;;;;;;4.20;1.40;;;15.50;75.40;;;;;;5068765;28;20037;-66
2022/09/16 02:25:22;;;;;;;6.45;1.67;;;15.40;75.40;;;;;;5080270;28;20035;-66
2022/09/16 02:27:48;;;;;;;5.95;1.42;;;15.40;75.50;;;;;;5122111;27;20035;-66
2022/09/16 02:30:17;;;;;;;5.20;1.48;;;15.40;75.50;;;;;;5136422;27;20027;-66
2022/09/16 02:32:52;;;;;;;3.85;1.05;;;15.40;75.50;;;;;;5135810;27;20042;-66
2022/09/16 02:35:20;;;;;;;6.50;1.30;;;15.40;75.60;;;;;;5116782;27;20023;-67
2022/09/16 02:38:13;;;;;;;4.18;1.30;;;15.40;75.50;;;;;;5136116;27;20050;-66
2022/09/16 02:40:47;;;;;;;5.45;1.50;;;15.40;75.50;;;;;;5130323;27;20362;-66
2022/09/16 02:43:14;;;;;;;5.78;1.30;;;15.40;75.50;;;;;;5135877;27;20027;-66
2022/09/16 02:46:19;;;;;;;5.45;1.38;;;15.40;75.60;;;;;;5134199;27;20034;-66
2022/09/16 02:49:09;;;;;;;3.47;1.10;;;15.40;75.60;;;;;;5133795;27;20027;-66
2022/09/16 02:51:54;;;;;;;4.80;1.30;;;15.30;75.60;;;;;;5128325;27;20052;-66
2022/09/16 02:54:22;;;;;;;4.82;1.73;;;15.30;75.70;;;;;;5127068;27;20042;-66
2022/09/16 02:56:48;;;;;;;5.50;1.35;;;15.30;75.70;;;;;;5129857;27;20054;-66
2022/09/16 02:59:15;;;;;;;4.32;1.23;;;15.30;75.70;;;;;;5134933;27;20047;-66
2022/09/16 03:01:43;;;;;;;3.83;1.42;;;15.30;75.80;;;;;;5134948;27;20030;-66
2022/09/16 03:04:13;;;;;;;5.25;1.38;;;15.30;75.80;;;;;;5135866;27;20034;-67
2022/09/16 03:06:39;;;;;;;5.60;1.20;;;15.30;75.90;;;;;;5135382;28;20074;-66
2022/09/16 03:09:11;;;;;;;4.38;1.40;;;15.30;75.90;;;;;;5136108;27;20023;-66
2022/09/16 03:11:47;;;;;;;3.55;1.30;;;15.30;75.90;;;;;;5127516;28;20084;-66
2022/09/16 03:14:23;;;;;;;12.63;1.98;;;15.30;76.00;;;;;;5134900;28;20035;-66
2022/09/16 03:17:08;;;;;;;5.65;1.35;;;15.30;76.00;;;;;;5136022;28;20406;-66
2022/09/16 03:19:36;;;;;;;5.63;1.38;;;15.30;76.60;;;;;;5133940;28;20041;-66
2022/09/16 03:22:29;;;;;;;5.13;1.40;;;15.30;75.90;;;;;;5134269;28;20031;-66
2022/09/16 03:24:55;;;;;;;4.47;1.45;;;15.30;75.80;;;;;;5131239;28;20038;-66
2022/09/16 03:27:54;;;;;;;4.70;1.50;;;15.30;75.80;;;;;;5135430;28;20023;-66
2022/09/16 03:30:20;;;;;;;3.88;0.90;;;15.30;75.60;;;;;;5122763;28;20340;-66
2022/09/16 03:33:03;;;;;;;5.88;1.25;;;15.20;75.60;;;;;;5135579;28;20110;-66
2022/09/16 03:35:33;;;;;;;3.10;1.13;;;15.20;75.60;;;;;;5125994;28;20428;-66
2022/09/16 03:38:01;;;;;;;4.63;1.40;;;15.20;75.70;;;;;;5135706;27;20027;-66
2022/09/16 03:40:28;;;;;;;4.95;1.15;;;15.20;75.70;;;;;;5134549;27;20030;-66
2022/09/16 03:42:56;;;;;;;4.63;1.20;;;15.20;75.60;;;;;;5135487;27;20041;-66
2022/09/16 03:45:23;;;;;;;3.35;1.10;;;15.20;75.60;;;;;;5135230;27;20023;-66
2022/09/16 03:47:50;;;;;;;4.35;1.30;;;15.20;75.50;;;;;;5137937;27;20110;-66
2022/09/16 03:50:17;;;;;;;2.67;1.05;;;15.20;75.40;;;;;;5138844;27;20037;-66
2022/09/16 03:52:43;;;;;;;5.40;1.13;;;15.20;75.50;;;;;;5136601;27;20039;-67
2022/09/16 03:55:12;;;;;;;4.55;1.25;;;15.20;75.50;;;;;;5137986;27;20072;-66
2022/09/16 03:57:38;;;;;;;5.13;1.20;;;15.20;75.60;;;;;;5138251;27;20393;-66
2022/09/16 04:00:06;;;;;;;7.88;1.50;;;15.10;75.70;;;;;;5138829;27;20029;-66
2022/09/16 04:02:37;;;;;;;4.05;1.30;;;15.10;75.80;;;;;;5127763;27;20062;-66
2022/09/16 04:05:03;;;;;;;4.35;1.33;;;15.10;75.80;;;;;;5137273;27;20484;-66
2022/09/16 04:07:32;;;;;;;5.30;1.23;;;15.10;75.90;;;;;;5133603;27;20458;-66
2022/09/16 04:09:58;;;;;;;6.10;1.23;;;15.10;76.00;;;;;;5138693;27;20050;-66
2022/09/16 04:12:24;;;;;;;4.80;1.30;;;15.10;75.90;;;;;;5138651;27;20027;-66
2022/09/16 04:14:49;;;;;;;5.75;1.30;;;15.10;76.00;;;;;;5138797;27;20023;-66
2022/09/16 04:17:15;;;;;;;4.00;1.30;;;15.10;76.10;;;;;;5138306;27;20058;-66
2022/09/16 04:19:40;;;;;;;3.30;1.10;;;15.10;76.20;;;;;;5138391;27;20480;-66
2022/09/16 04:22:06;;;;;;;5.53;1.45;;;15.10;76.30;;;;;;5139035;27;20087;-67
2022/09/16 04:24:32;;;;;;;4.22;1.23;;;15.10;76.40;;;;;;5138016;27;20022;-66
2022/09/16 04:26:57;;;;;;;3.83;1.13;;;15.10;76.40;;;;;;5139011;27;20031;-66
2022/09/16 04:29:23;;;;;;;5.18;1.10;;;15.00;76.40;;;;;;5138637;27;20038;-66
2022/09/16 04:31:48;;;;;;;4.95;1.45;;;15.10;76.40;;;;;;5135396;27;20305;-66
2022/09/16 04:34:14;;;;;;;3.70;1.30;;;15.10;76.50;;;;;;5137114;27;20039;-66
2022/09/16 04:36:40;;;;;;;4.65;1.48;;;15.00;76.60;;;;;;5136750;27;20016;-66
2022/09/16 04:39:06;;;;;;;6.38;1.60;;;15.00;76.60;;;;;;5137537;27;20408;-66
2022/09/16 04:41:31;;;;;;;4.47;1.40;;;15.00;76.70;;;;;;5137443;27;20066;-66
2022/09/16 04:43:59;;;;;;;6.50;1.50;;;15.00;76.70;;;;;;5138129;27;20065;-67
2022/09/16 04:46:27;;;;;;;4.43;1.58;;;15.00;76.70;;;;;;5132507;27;20059;-67
2022/09/16 04:48:54;;;;;;;3.65;1.27;;;15.00;76.70;;;;;;5136342;27;20031;-67
2022/09/16 04:51:21;;;;;;;4.40;1.50;;;15.00;76.60;;;;;;5128428;27;20072;-67
2022/09/16 04:53:47;;;;;;;3.67;1.25;;;15.00;76.60;;;;;;5134758;27;20054;-67
2022/09/16 04:56:21;;;;;;;6.90;1.30;;;15.00;76.50;;;;;;5136912;27;20023;-67
2022/09/16 04:58:49;;;;;;;4.10;1.38;;;15.00;76.40;;;;;;5135493;27;20031;-67
2022/09/16 05:01:18;;;;;;;3.85;1.35;;;15.00;76.20;;;;;;5135560;27;20482;-67
2022/09/16 05:03:45;;;;;;;3.17;0.82;;;15.00;76.10;;;;;;5137743;27;20050;-67
2022/09/16 05:06:17;;;;;;;5.28;1.88;;;15.00;76.10;;;;;;5137292;27;20035;-67
2022/09/16 05:08:43;;;;;;;4.47;1.00;;;15.00;76.00;;;;;;5141535;27;20061;-67
2022/09/16 05:11:11;;;;;;;4.85;1.02;;;15.00;76.00;;;;;;5136253;27;20066;-67
2022/09/16 05:13:37;;;;;;;5.68;1.20;;;15.00;75.90;;;;;;5136462;27;20412;-67
2022/09/16 05:16:09;;;;;;;6.07;1.45;;;15.00;75.90;;;;;;5154261;27;20027;-67
2022/09/16 05:18:36;;;;;;;7.47;1.55;;;15.00;75.90;;;;;;5135732;27;20462;-67
2022/09/16 05:21:04;;;;;;;3.00;1.08;;;15.00;75.90;;;;;;5134326;27;20438;-67
2022/09/16 05:23:31;;;;;;;3.80;0.90;;;15.00;75.90;;;;;;5136836;27;20034;-67
2022/09/16 05:26:03;;;;;;;5.85;1.13;;;15.00;76.00;;;;;;5134629;27;20046;-67
2022/09/16 05:28:28;;;;;;;3.40;1.23;;;14.90;75.90;;;;;;5136721;27;20035;-67
2022/09/16 05:30:54;;;;;;;3.45;1.20;;;14.90;75.90;;;;;;5135940;27;20038;-66
2022/09/16 05:33:19;;;;;;;5.43;1.58;;;14.90;75.90;;;;;;5118551;27;20363;-66
2022/09/16 05:35:45;;;;;;;2.35;1.00;;;14.90;75.90;;;;;;5136018;27;20027;-66
2022/09/16 05:38:12;;;;;;;4.53;1.35;;;14.90;75.80;;;;;;5135128;27;20030;-67
2022/09/16 05:40:38;;;;;;;3.80;0.90;;;14.90;75.70;;;;;;5136560;27;20385;-67
2022/09/16 05:43:04;;;;;;;2.80;0.95;;;14.90;75.60;;;;;;5135238;27;20027;-66
2022/09/16 05:45:30;;;;;;;4.68;1.13;;;14.90;75.50;;;;;;5135823;27;20064;-67
2022/09/16 05:47:55;;;;;;;3.88;1.00;;;15.00;75.50;;;;;;5135784;27;20114;-67
2022/09/16 05:50:21;;;;;;;5.53;1.05;;;15.00;75.40;;;;;;5135026;27;20443;-67
2022/09/16 05:52:47;;;;;;;4.65;1.33;;;14.90;75.30;;;;;;5135290;27;20031;-67
2022/09/16 05:55:13;;;;;;;4.63;1.23;;;14.90;75.20;;;;;;5136378;27;20126;-67
2022/09/16 05:57:39;;;;;;;5.47;1.13;;;14.90;75.30;;;;;;5135724;27;20107;-67
2022/09/16 06:00:05;;;;;;;5.07;1.30;;;14.90;75.20;;;;;;5134670;27;20439;-67
2022/09/16 06:02:35;;;;;;;5.13;1.10;;;14.90;75.20;;;;;;5133790;27;20038;-67
2022/09/16 06:05:01;;;;;;;4.13;1.20;;;14.90;75.10;;;;;;5136190;27;20027;-66
2022/09/16 06:07:27;;;;;;;5.20;1.40;;;14.90;75.10;;;;;;5134062;27;20346;-67
2022/09/16 06:09:52;;;;;;;2.15;1.00;;;14.90;75.10;;;;;;5135519;27;20455;-67
2022/09/16 06:12:18;;;;;;;3.17;1.10;;;14.90;75.00;;;;;;5135168;27;20051;-67
2022/09/16 06:14:43;;;;;;;4.15;1.20;;;14.90;75.00;;;;;;5135507;27;20343;-67
2022/09/16 06:17:09;;;;;;;4.10;1.52;;;14.90;74.80;;;;;;5136434;27;20046;-67
2022/09/16 06:19:34;;;;;;;4.22;1.13;;;15.00;74.80;;;;;;5135638;27;20026;-67
2022/09/16 06:22:00;;;;;;;4.20;1.00;;;15.00;74.60;;;;;;5135288;27;20027;-67
2022/09/16 06:24:26;;;;;;;2.53;1.05;;;15.00;74.50;;;;;;5134244;27;20110;-67
2022/09/16 06:26:52;;;;;;;3.58;1.30;;;15.10;74.50;;;;;;5129139;27;20122;-67
2022/09/16 06:29:17;;;;;;;6.75;1.10;;;15.10;74.30;;;;;;5146329;27;20031;-66
2022/09/16 06:31:43;;;;;;;6.55;1.60;;;15.10;74.30;;;;;;5130597;27;20425;-67
2022/09/16 06:34:14;;;;;;;3.08;0.85;;;15.10;74.20;;;;;;5130970;27;20027;-67
2022/09/16 06:36:39;;;;;;;4.82;1.20;;;15.20;74.10;;;;;;5128553;27;20043;-67
2022/09/16 06:39:05;;;;;;;2.53;0.82;;;15.20;74.20;;;;;;5130605;27;20395;-66
2022/09/16 06:41:32;;;;;;;3.28;1.00;;;15.20;74.10;;;;;;5128993;27;20031;-67
2022/09/16 06:43:58;;;;;;;5.05;1.25;;;15.20;73.90;;;;;;5129960;27;20031;-66
2022/09/16 06:46:26;;;;;;;4.97;1.27;;;15.30;73.90;;;;;;5130803;27;20049;-66
2022/09/16 06:48:57;;;;;;;2.63;1.42;;;15.30;73.80;;;;;;5131027;27;20080;-67
2022/09/16 06:51:28;;;;;;;2.97;1.05;;;15.30;73.80;;;;;;5131170;27;20037;-67
2022/09/16 06:53:59;;;;;;;2.28;0.88;;;15.40;73.70;;;;;;5136149;27;20039;-67
2022/09/16 06:56:25;;;;;;;4.35;1.10;;;15.40;73.70;;;;;;5135231;27;20138;-67
2022/09/16 06:58:54;;;;;;;4.32;1.40;;;15.40;73.70;;;;;;5135502;27;20023;-67
2022/09/16 07:01:26;;;;;;;3.53;1.10;;;15.40;73.60;;;;;;5135519;27;20023;-67
2022/09/16 07:03:54;;;;;;;4.28;1.00;;;15.50;73.70;;;;;;5134637;27;20467;-67
2022/09/16 07:06:21;;;;;;;4.13;1.08;;;15.50;73.60;;;;;;5135807;27;20031;-67
2022/09/16 07:08:47;;;;;;;3.30;1.02;;;15.60;73.50;;;;;;5134331;28;20502;-67
2022/09/16 07:11:16;;;;;;;5.22;1.65;;;15.70;73.30;;;;;;5134517;28;20027;-67
2022/09/16 07:13:43;;;;;;;5.55;2.00;;;15.80;73.20;;;;;;5135211;27;20142;-67
2022/09/16 07:16:11;;;;;;;4.13;1.42;;;15.90;73.10;;;;;;5135299;27;20043;-67
2022/09/16 07:18:37;;;;;;;6.07;1.33;;;15.90;73.00;;;;;;5134989;27;20035;-67
2022/09/16 07:21:08;;;;;;;3.33;1.20;;;16.00;72.90;;;;;;5138826;27;20087;-67
2022/09/16 07:23:35;;;;;;;3.90;1.40;;;16.00;72.70;;;;;;5139627;27;20356;-68
2022/09/16 07:26:03;;;;;;;2.58;1.05;;;16.20;72.60;;;;;;5138519;27;20035;-67
2022/09/16 07:28:30;;;;;;;4.53;1.25;;;16.30;72.30;;;;;;5138591;27;20023;-67
2022/09/16 07:30:58;;;;;;;6.97;1.60;;;16.40;71.90;;;;;;5139332;27;20038;-67
2022/09/16 07:33:24;;;;;;;3.83;1.30;;;16.50;71.70;;;;;;5140070;27;20047;-67
2022/09/16 07:35:50;;;;;;;3.45;1.02;;;16.50;71.60;;;;;;5139323;27;20135;-67
2022/09/16 07:38:15;;;;;;;3.58;1.10;;;16.50;71.50;;;;;;5139304;27;20130;-67
2022/09/16 07:40:41;;;;;;;4.25;1.20;;;16.50;71.30;;;;;;5138352;27;20031;-67
2022/09/16 07:43:07;;;;;;;5.43;1.20;;;16.50;71.30;;;;;;5138303;27;20366;-67
2022/09/16 07:45:32;;;;;;;4.82;1.10;;;16.50;71.20;;;;;;5139201;27;20348;-67
2022/09/16 07:47:58;;;;;;;5.43;1.23;;;16.60;71.00;;;;;;5121121;27;20450;-67
2022/09/16 07:50:23;;;;;;;3.75;1.13;;;16.70;70.70;;;;;;5138948;27;20045;-67
2022/09/16 07:52:54;;;;;;;5.30;1.45;;;16.90;70.40;;;;;;5138110;27;20058;-67
2022/09/16 07:55:20;;;;;;;6.07;1.17;;;17.10;69.80;;;;;;5138888;27;20027;-67
2022/09/16 07:57:45;;;;;;;4.65;1.42;;;17.20;69.50;;;;;;5138942;27;20031;-67
2022/09/16 08:00:11;;;;;;;4.88;1.13;;;17.30;69.00;;;;;;5138824;27;20038;-67
2022/09/16 08:02:37;;;;;;;3.53;1.02;;;17.50;68.50;;;;;;5138503;27;20126;-68
2022/09/16 08:05:03;;;;;;;4.32;1.20;;;17.70;67.80;;;;;;5138921;27;20062;-67
2022/09/16 08:07:29;;;;;;;4.72;1.23;;;17.70;67.40;;;;;;5137648;27;20077;-68
2022/09/16 08:09:55;;;;;;;3.05;0.90;;;17.70;67.20;;;;;;5139121;27;20439;-67
2022/09/16 08:12:20;;;;;;;4.03;0.85;;;17.70;67.00;;;;;;5138155;27;20047;-67
2022/09/16 08:14:46;;;;;;;5.80;1.27;;;17.60;67.00;;;;;;5138655;27;20023;-67
2022/09/16 08:17:11;;;;;;;7.20;1.38;;;17.60;66.90;;;;;;5137472;27;20084;-68
2022/09/16 08:19:38;;;;;;;5.57;0.85;;;17.80;66.40;;;;;;5138491;27;20023;-67
2022/09/16 08:22:03;;;;;;;2.95;0.90;;;18.10;65.90;;;;;;5138538;27;20030;-67
2022/09/16 08:24:29;;;;;;;8.52;1.35;;;18.30;65.30;;;;;;5138362;27;20332;-67
2022/09/16 08:26:55;;;;;;;5.75;1.23;;;18.50;64.60;;;;;;5138527;27;20042;-67
2022/09/16 08:29:21;;;;;;;4.15;1.10;;;18.70;63.80;;;;;;5138149;27;20027;-67
2022/09/16 08:31:47;;;;;;;3.13;0.95;;;18.90;63.20;;;;;;5137534;27;20455;-68
2022/09/16 08:34:13;;;;;;;3.70;0.80;;;19.10;62.70;;;;;;5138074;27;20023;-67
2022/09/16 08:36:38;;;;;;;5.55;1.33;;;19.30;62.20;;;;;;5138127;27;20023;-67
2022/09/16 08:39:04;;;;;;;6.60;1.27;;;19.50;61.70;;;;;;5138518;27;20027;-67
2022/09/16 08:41:52;;;;;;;4.07;1.00;;;19.70;61.30;;;;;;5136964;27;20019;-68
2022/09/16 08:44:36;;;;;;;4.00;1.02;;;19.80;60.20;;;;;;5138082;27;20038;-68
2022/09/16 08:47:08;;;;;;;3.80;0.93;;;20.00;60.30;;;;;;5137231;27;20451;-68
2022/09/16 08:49:41;;;;;;;4.88;1.00;;;20.10;59.90;;;;;;5137071;27;20031;-68
2022/09/16 08:52:28;;;;;;;2.80;0.90;;;20.20;59.60;;;;;;5138336;27;20031;-67
2022/09/16 08:54:59;;;;;;;5.03;1.15;;;20.30;59.30;;;;;;5138016;27;20027;-68
2022/09/16 08:57:29;;;;;;;5.13;1.13;;;20.40;58.80;;;;;;5137107;27;20088;-68
2022/09/16 09:00:03;;;;;;;5.20;1.27;;;20.50;58.40;;;;;;5137697;27;20418;-67
2022/09/16 09:02:35;;;;;;;3.13;1.00;;;20.50;58.10;;;;;;5137722;27;20393;-68
2022/09/16 09:05:02;;;;;;;3.78;0.77;;;20.30;58.10;;;;;;5137898;27;20058;-68
2022/09/16 09:07:45;;;;;;;6.47;1.15;;;20.00;58.30;;;;;;5137342;27;20029;-68
2022/09/16 09:10:47;;;;;;;4.70;1.13;;;19.70;58.70;;;;;;5136461;27;20079;-67
2022/09/16 09:13:26;;;;;;;4.93;1.25;;;19.40;59.00;;;;;;5137277;27;20089;-68
2022/09/16 09:16:00;;;;;;;2.15;0.80;;;19.30;59.30;;;;;;5137351;27;20027;-68
2022/09/16 09:18:42;;;;;;;2.55;0.93;;;19.30;59.10;;;;;;5136437;27;20355;-68
2022/09/16 09:21:32;;;;;;;3.25;0.90;;;19.50;58.40;;;;;;5137365;27;20030;-68
2022/09/16 09:24:06;;;;;;;2.55;0.80;;;19.70;57.20;;;;;;5137205;27;20035;-68
2022/09/16 09:26:47;;;;;;;1.25;0.57;;;19.80;56.70;;;;;;5136204;27;20023;-68
2022/09/16 09:29:23;;;;;;;1.90;0.77;;;19.90;56.00;;;;;;5136148;27;20443;-68
2022/09/16 09:32:13;;;;;;;2.80;1.00;;;19.80;55.70;;;;;;5137198;27;20043;-68
2022/09/16 09:35:02;;;;;;;3.40;1.00;;;19.90;55.50;;;;;;5135959;27;20096;-68
2022/09/16 09:37:34;;;;;;;4.72;0.93;;;20.10;54.90;;;;;;5137191;27;20122;-68
2022/09/16 09:40:16;;;;;;;2.90;0.90;;;20.20;54.60;;;;;;5136137;27;20031;-69
2022/09/16 09:43:06;;;;;;;4.18;0.70;;;20.30;53.80;;;;;;5135873;27;20392;-68
2022/09/16 09:45:38;;;;;;;2.95;0.95;;;20.40;53.30;;;;;;5136679;27;20030;-68
2022/09/16 09:48:23;;;;;;;3.33;0.80;;;20.50;53.30;;;;;;5137073;27;20045;-68
2022/09/16 09:50:50;;;;;;;2.22;0.70;;;20.50;53.10;;;;;;5136784;27;20034;-68
2022/09/16 09:53:45;;;;;;;3.10;0.90;;;20.60;52.80;;;;;;5136583;27;20027;-66
2022/09/16 09:56:20;;;;;;;2.47;0.75;;;20.70;52.40;;;;;;5137006;27;20130;-68
2022/09/16 09:59:00;;;;;;;3.47;0.90;;;20.80;51.70;;;;;;5132930;27;20033;-68
2022/09/16 10:01:26;;;;;;;3.70;0.98;;;20.90;51.50;;;;;;5136520;27;20035;-68
2022/09/16 10:03:54;;;;;;;2.97;0.65;;;21.00;51.30;;;;;;5135610;27;20050;-68
2022/09/16 10:06:32;;;;;;;3.58;0.95;;;21.10;50.90;;;;;;5136411;27;20030;-68
2022/09/16 10:08:58;;;;;;;4.25;1.10;;;21.10;50.40;;;;;;5135369;27;20035;-68
2022/09/16 10:11:30;;;;;;;3.10;0.70;;;21.00;50.30;;;;;;5135334;27;20034;-68
2022/09/16 10:13:58;;;;;;;6.05;1.00;;;21.00;50.30;;;;;;5135153;27;20046;-68
2022/09/16 10:16:29;;;;;;;2.75;0.70;;;21.00;50.50;;;;;;5135429;27;20114;-68
2022/09/16 10:19:07;;;;;;;3.13;0.80;;;20.90;50.70;;;;;;5136147;27;20043;-68
2022/09/16 10:21:44;;;;;;;3.45;0.82;;;20.80;50.60;;;;;;5135213;27;20031;-68
2022/09/16 10:24:36;;;;;;;2.05;0.85;;;20.80;50.80;;;;;;5118141;27;20045;-68
2022/09/16 10:27:16;;;;;;;;;;;20.80;50.60;;;;;;5136455;27;20023;-68
2022/09/16 10:29:42;;;;;;;3.28;0.70;;;20.80;51.00;;;;;;5135190;27;19907;-68
2022/09/16 10:32:16;;;;;;;3.03;1.02;;;20.90;50.80;;;;;;5134921;27;20106;-68
2022/09/16 10:34:42;;;;;;;2.80;1.05;;;21.00;50.20;;;;;;5135798;27;20113;-68
2022/09/16 10:37:11;;;;;;;2.67;0.98;;;20.90;49.70;;;;;;5134903;27;20015;-68
2022/09/16 10:39:39;;;;;;;3.00;0.90;;;20.90;49.50;;;;;;5135710;27;20023;-68
2022/09/16 10:42:20;;;;;;;2.50;0.80;;;21.00;49.30;;;;;;5117532;27;20051;-68
2022/09/16 10:44:47;;;;;;;2.85;1.10;;;21.00;49.00;;;;;;5135761;27;20114;-68
2022/09/16 10:47:24;;;;;;;2.05;0.82;;;20.90;49.30;;;;;;5134555;27;20469;-68
2022/09/16 10:49:55;;;;;;;3.63;0.93;;;21.00;49.00;;;;;;5134876;27;20031;-68
2022/09/16 10:52:26;;;;;;;3.13;0.75;;;21.10;49.10;;;;;;5135537;27;20113;-68
2022/09/16 10:54:54;;;;;;;3.50;1.17;;;21.20;48.80;;;;;;5134375;27;20023;-68
2022/09/16 10:57:31;;;;;;;3.45;0.85;;;21.00;48.80;;;;;;5134540;27;20443;-68
2022/09/16 11:00:12;;;;;;;4.72;1.10;;;20.80;48.60;;;;;;5152268;27;20393;-68
2022/09/16 11:02:56;;;;;;;3.97;0.90;;;20.60;48.50;;;;;;5134089;27;20081;-68
2022/09/16 11:05:28;;;;;;;1.90;0.70;;;20.70;48.30;;;;;;5108776;28;20040;-68
2022/09/16 11:08:18;;;;;;;2.42;0.65;;;20.90;48.00;;;;;;5114366;28;20035;-68
2022/09/16 11:11:15;;;;;;;2.10;0.75;;;20.80;47.90;;;;;;5114759;28;20337;-68
2022/09/16 11:14:15;;;;;;;3.53;0.95;;;20.70;48.30;;;;;;5127398;28;20071;-68
2022/09/16 11:17:10;;;;;;;5.57;1.38;;;20.30;49.10;;;;;;5104965;28;20048;-68
2022/09/16 11:19:47;;;;;;;4.53;1.23;;;20.10;49.50;;;;;;5101246;28;20042;-68
2022/09/16 11:22:46;;;;;;;2.75;0.80;;;19.90;49.90;;;;;;5115512;28;20331;-68
2022/09/16 11:25:26;;;;;;;3.55;0.88;;;19.60;50.40;;;;;;5100914;28;20040;-68
2022/09/16 11:28:11;;;;;;;2.10;0.88;;;19.50;50.60;;;;;;5115219;28;20032;-68
2022/09/16 11:30:46;;;;;;;4.05;0.73;;;19.60;50.50;;;;;;5114805;28;20027;-68
2022/09/16 11:33:32;;;;;;;2.15;0.90;;;19.80;50.20;;;;;;5131292;28;20036;-68
2022/09/16 11:36:10;;;;;;;2.10;0.70;;;20.00;49.60;;;;;;5113710;28;20028;-68
2022/09/16 11:39:08;;;;;;;3.30;0.80;;;20.20;49.20;;;;;;5130645;28;20032;-68
2022/09/16 11:41:39;;;;;;;2.40;0.70;;;20.30;48.80;;;;;;5072399;28;20033;-68
2022/09/16 11:44:05;;;;;;;3.53;0.80;;;20.50;48.40;;;;;;5072505;28;20368;-68
2022/09/16 11:46:48;;;;;;;2.15;0.60;;;20.50;48.10;;;;;;5072464;28;20036;-68
2022/09/16 11:49:38;;;;;;;2.35;0.90;;;20.60;47.60;;;;;;5056086;28;20131;-68
2022/09/16 11:52:28;;;;;;;8.23;1.20;;;20.70;47.30;;;;;;5072370;28;20090;-68
2022/09/16 11:55:12;;;;;;;2.38;0.65;;;20.80;46.50;;;;;;5072371;28;20037;-68
2022/09/16 11:57:43;;;;;;;3.78;1.10;;;20.60;46.50;;;;;;5072295;28;20029;-68
2022/09/16 12:00:11;;;;;;;3.35;0.93;;;20.30;46.90;;;;;;5072846;28;20045;-68
2022/09/16 12:02:56;;;;;;;4.25;1.02;;;20.20;47.30;;;;;;5072313;28;20197;-68
2022/09/16 12:05:25;;;;;;;2.88;0.90;;;20.00;47.40;;;;;;5072237;28;20055;-68
2022/09/16 12:08:10;;;;;;;4.20;0.98;;;19.90;47.40;;;;;;5075980;28;20188;-68
2022/09/16 12:10:44;;;;;;;6.03;1.40;;;20.00;46.80;;;;;;5075773;28;20036;-68
2022/09/16 12:13:17;;;;;;;6.75;1.27;;;20.10;46.60;;;;;;5075830;28;20476;-68
2022/09/16 12:15:53;;;;;;;5.63;1.23;;;20.10;46.00;;;;;;5075642;28;20033;-68
2022/09/16 12:18:33;;;;;;;4.10;1.00;;;20.20;45.60;;;;;;5098286;27;20360;-68
2022/09/16 12:21:34;;;;;;;3.50;1.10;;;20.20;45.50;;;;;;5134115;27;20103;-68
2022/09/16 12:24:11;;;;;;;5.72;1.50;;;20.30;45.50;;;;;;5117907;28;20023;-68
2022/09/16 12:26:45;;;;;;;4.43;1.10;;;20.30;45.50;;;;;;5117913;28;20050;-68
2022/09/16 12:29:18;;;;;;;4.32;1.20;;;20.30;45.50;;;;;;5134386;27;20114;-68
2022/09/16 12:31:53;;;;;;;5.38;1.58;;;20.30;45.40;;;;;;5134355;27;20095;-68
2022/09/16 12:34:25;;;;;;;5.45;1.15;;;20.40;45.30;;;;;;5117523;28;20028;-68
2022/09/16 12:37:05;;;;;;;8.18;1.73;;;20.40;45.30;;;;;;5117633;28;20056;-68
2022/09/16 12:39:31;;;;;;;5.43;1.30;;;20.40;45.20;;;;;;5116838;28;20031;-68
2022/09/16 12:42:47;;;;;;;6.40;1.25;;;20.40;45.40;;;;;;5117517;28;20039;-68
2022/09/16 12:45:36;;;;;;;5.30;1.08;;;20.40;45.90;;;;;;5130427;27;20036;-68
2022/09/16 12:48:17;;;;;;;5.00;1.35;;;20.40;46.50;;;;;;5117554;28;20469;-68
2022/09/16 12:51:08;;;;;;;2.80;0.93;;;20.40;47.00;;;;;;5117408;28;20068;-68
2022/09/16 12:53:48;;;;;;;6.15;1.20;;;20.30;47.70;;;;;;5117191;28;20432;-68
2022/09/16 12:56:45;;;;;;;4.18;1.20;;;20.20;48.20;;;;;;5116539;28;20070;-68
2022/09/16 12:59:25;;;;;;;7.63;1.40;;;20.10;48.80;;;;;;5102907;28;20028;-68
2022/09/16 13:02:03;;;;;;;4.60;1.08;;;20.00;49.20;;;;;;5133468;27;20059;-68
2022/09/16 13:04:39;;;;;;;6.07;1.10;;;19.90;49.60;;;;;;5120498;27;20028;-68
2022/09/16 13:07:05;;;;;;;4.78;1.20;;;19.80;49.80;;;;;;5117100;28;20464;-68
2022/09/16 13:09:37;;;;;;;5.55;1.25;;;19.80;50.00;;;;;;5116134;28;20020;-68
2022/09/16 13:12:18;;;;;;;8.52;1.77;;;19.80;50.20;;;;;;5098981;28;20028;-68
2022/09/16 13:14:48;;;;;;;4.68;1.20;;;19.80;50.30;;;;;;5116937;28;20036;-68
2022/09/16 13:17:14;;;;;;;4.93;1.40;;;19.70;50.20;;;;;;5116178;28;20351;-68
2022/09/16 13:19:50;;;;;;;5.13;1.15;;;19.70;50.20;;;;;;5098844;28;20028;-68